createdAt,value
2022-10-14T00:02:11.880Z,7.78
2022-10-14T00:04:39.287Z,8.18
2022-10-14T00:07:06.523Z,8.40
2022-10-14T00:09:33.749Z,7.40
2022-10-14T00:12:00.987Z,8.15
2022-10-14T00:14:28.218Z,7.55
2022-10-14T00:16:55.894Z,7.20
2022-10-14T00:19:23.356Z,7.70
2022-10-14T00:21:50.659Z,7.55
2022-10-14T00:24:18.966Z,6.90
2022-10-14T00:26:46.611Z,7.40
2022-10-14T00:29:15.074Z,7.53
2022-10-14T00:31:42.432Z,6.60
2022-10-14T00:34:13.026Z,7.20
2022-10-14T00:36:41.232Z,7.03
2022-10-14T00:39:08.656Z,7.13
2022-10-14T00:41:36.576Z,6.63
2022-10-14T00:44:05.881Z,6.82
2022-10-14T00:46:37.610Z,6.95
2022-10-14T00:49:15.780Z,6.43
2022-10-14T00:51:45.039Z,6.82
2022-10-14T00:54:13.997Z,6.72
2022-10-14T00:56:42.058Z,7.78
2022-10-14T00:59:09.376Z,7.00
2022-10-14T01:01:36.646Z,6.00
2022-10-14T01:04:04.054Z,6.82
2022-10-14T01:06:40.411Z,6.65
2022-10-14T01:09:13.249Z,5.75
2022-10-14T01:11:46.151Z,5.68
2022-10-14T01:14:16.145Z,5.97
2022-10-14T01:16:58.052Z,6.38
2022-10-14T01:19:53.857Z,6.03
2022-10-14T01:22:22.397Z,6.45
2022-10-14T01:24:49.801Z,6.30
2022-10-14T01:27:34.655Z,6.50
2022-10-14T01:30:04.884Z,5.65
2022-10-14T01:33:01.607Z,6.03
2022-10-14T01:35:28.859Z,5.53
2022-10-14T01:37:59.553Z,5.47
2022-10-14T01:40:38.118Z,5.53
2022-10-14T01:43:06.550Z,5.13
2022-10-14T01:45:35.913Z,6.32
2022-10-14T01:48:04.659Z,5.95
2022-10-14T01:50:32.626Z,5.53
2022-10-14T01:53:03.625Z,5.43
2022-10-14T01:55:33.763Z,5.88
2022-10-14T01:58:01.248Z,5.97
2022-10-14T02:00:28.488Z,5.57
2022-10-14T02:02:55.776Z,5.55
2022-10-14T02:05:27.714Z,5.00
2022-10-14T02:08:13.615Z,5.53
2022-10-14T02:10:50.556Z,5.55
2022-10-14T02:13:26.648Z,5.60
2022-10-14T02:16:16.999Z,5.13
2022-10-14T02:18:50.944Z,4.93
2022-10-14T02:21:27.683Z,5.20
2022-10-14T02:23:57.969Z,5.07
2022-10-14T02:26:25.874Z,5.23
2022-10-14T02:28:54.186Z,5.07
2022-10-14T02:31:21.850Z,5.20
2022-10-14T02:33:54.307Z,4.80
2022-10-14T02:36:23.873Z,4.50
2022-10-14T02:38:51.370Z,5.00
2022-10-14T02:41:20.531Z,4.90
2022-10-14T02:43:47.879Z,5.05
2022-10-14T02:46:15.458Z,4.57
2022-10-14T02:48:42.738Z,4.47
2022-10-14T02:51:10.002Z,5.50
2022-10-14T02:53:37.317Z,4.40
2022-10-14T02:56:04.541Z,4.95
2022-10-14T02:58:31.878Z,4.97
2022-10-14T03:00:59.125Z,4.85
2022-10-14T03:03:26.401Z,4.80
2022-10-14T03:05:53.661Z,4.45
2022-10-14T03:08:20.915Z,4.15
2022-10-14T03:10:48.305Z,4.68
2022-10-14T03:13:15.601Z,4.43
2022-10-14T03:15:43.017Z,4.88
2022-10-14T03:18:10.810Z,4.88
2022-10-14T03:20:40.391Z,4.70
2022-10-14T03:23:07.819Z,4.57
2022-10-14T03:25:35.182Z,4.80
2022-10-14T03:28:02.466Z,4.50
2022-10-14T03:30:31.987Z,4.18
2022-10-14T03:33:01.421Z,4.43
2022-10-14T03:35:28.839Z,4.30
2022-10-14T03:37:56.195Z,4.50
2022-10-14T03:40:23.696Z,4.32
2022-10-14T03:42:50.926Z,3.97
2022-10-14T03:45:18.193Z,4.43
2022-10-14T03:47:45.440Z,4.32
2022-10-14T03:50:12.727Z,4.57
2022-10-14T03:52:44.838Z,4.60
2022-10-14T03:55:13.982Z,4.60
2022-10-14T03:57:41.206Z,4.78
2022-10-14T04:00:09.402Z,4.32
2022-10-14T04:02:36.896Z,4.43
2022-10-14T04:05:04.155Z,4.13
2022-10-14T04:07:31.425Z,4.50
2022-10-14T04:09:58.677Z,3.85
2022-10-14T04:12:25.927Z,4.10
2022-10-14T04:14:56.765Z,4.25
2022-10-14T04:17:24.820Z,4.50
2022-10-14T04:19:52.352Z,4.40
2022-10-14T04:22:19.877Z,4.07
2022-10-14T04:24:47.342Z,3.88
2022-10-14T04:27:14.616Z,4.25
2022-10-14T04:29:41.878Z,4.35
2022-10-14T04:32:09.144Z,4.68
2022-10-14T04:34:36.402Z,4.95
2022-10-14T04:37:03.747Z,4.50
2022-10-14T04:39:31.045Z,3.95
2022-10-14T04:41:58.275Z,4.00
2022-10-14T04:44:25.522Z,4.30
2022-10-14T04:46:52.897Z,4.30
2022-10-14T04:49:20.155Z,3.97
2022-10-14T04:51:47.402Z,4.00
2022-10-14T04:54:14.692Z,4.10
2022-10-14T04:56:41.943Z,3.97
2022-10-14T04:59:09.282Z,4.47
2022-10-14T05:01:36.586Z,4.15
2022-10-14T05:04:03.954Z,3.92
2022-10-14T05:06:31.198Z,4.13
2022-10-14T05:08:58.555Z,4.25
2022-10-14T05:11:26.117Z,3.78
2022-10-14T05:13:53.437Z,3.70
2022-10-14T05:16:20.698Z,3.40
2022-10-14T05:18:47.978Z,4.28
2022-10-14T05:21:16.550Z,3.72
2022-10-14T05:23:43.802Z,4.10
2022-10-14T05:26:11.086Z,3.72
2022-10-14T05:28:38.710Z,4.03
2022-10-14T05:31:06.311Z,3.80
2022-10-14T05:33:33.713Z,3.65
2022-10-14T05:36:00.965Z,4.53
2022-10-14T05:38:28.226Z,3.75
2022-10-14T05:40:56.656Z,4.35
2022-10-14T05:43:32.149Z,3.88
2022-10-14T05:45:59.916Z,3.67
2022-10-14T05:48:27.235Z,3.58
2022-10-14T05:50:54.532Z,4.38
2022-10-14T05:53:21.856Z,3.45
2022-10-14T05:55:49.106Z,4.20
2022-10-14T05:58:16.395Z,3.88
2022-10-14T06:00:43.668Z,3.53
2022-10-14T06:03:13.171Z,3.97
2022-10-14T06:05:40.566Z,3.83
2022-10-14T06:08:07.828Z,3.58
2022-10-14T06:10:35.887Z,3.97
2022-10-14T06:13:03.306Z,4.10
2022-10-14T06:15:30.551Z,3.50
2022-10-14T06:17:57.765Z,3.67
2022-10-14T06:20:25.066Z,4.15
2022-10-14T06:22:52.310Z,4.28
2022-10-14T06:25:19.554Z,4.32
2022-10-14T06:27:46.814Z,3.97
2022-10-14T06:30:14.258Z,4.00
2022-10-14T06:32:41.616Z,3.78
2022-10-14T06:35:09.415Z,4.38
2022-10-14T06:37:37.153Z,4.07
2022-10-14T06:40:05.386Z,4.18
2022-10-14T06:42:34.584Z,3.72
2022-10-14T06:45:01.945Z,3.60
2022-10-14T06:47:30.352Z,3.40
2022-10-14T06:49:57.640Z,3.92
2022-10-14T06:52:25.035Z,3.80
2022-10-14T06:54:52.393Z,3.70
2022-10-14T06:57:19.655Z,3.80
2022-10-14T06:59:46.929Z,3.45
2022-10-14T07:02:14.395Z,3.20
2022-10-14T07:04:41.690Z,3.53
2022-10-14T07:07:09.195Z,3.72
2022-10-14T07:09:37.687Z,3.42
2022-10-14T07:12:04.926Z,3.10
2022-10-14T07:14:32.232Z,3.58
2022-10-14T07:17:00.530Z,3.58
2022-10-14T07:19:27.851Z,2.97
2022-10-14T07:21:55.111Z,4.18
2022-10-14T07:24:22.337Z,3.47
2022-10-14T07:26:49.644Z,3.42
2022-10-14T07:29:16.931Z,3.30
2022-10-14T07:31:44.323Z,3.92
2022-10-14T07:34:11.555Z,3.38
2022-10-14T07:36:38.794Z,3.20
2022-10-14T07:39:06.060Z,3.30
2022-10-14T07:41:33.711Z,2.92
2022-10-14T07:44:02.965Z,3.35
2022-10-14T07:46:33.070Z,3.70
2022-10-14T07:49:05.518Z,2.83
2022-10-14T07:51:33.440Z,3.38
2022-10-14T07:54:01.605Z,3.60
2022-10-14T07:56:29.108Z,3.00
2022-10-14T07:58:56.831Z,3.17
2022-10-14T08:01:24.774Z,3.00
2022-10-14T08:03:52.316Z,2.60
2022-10-14T08:06:19.605Z,3.08
2022-10-14T08:08:46.897Z,2.80
2022-10-14T08:11:16.409Z,3.53
2022-10-14T08:13:46.164Z,3.20
2022-10-14T08:16:23.868Z,3.03
2022-10-14T08:18:51.338Z,2.80
2022-10-14T08:21:19.433Z,3.00
2022-10-14T08:23:46.727Z,2.90
2022-10-14T08:26:19.767Z,2.85
2022-10-14T08:28:47.548Z,3.15
2022-10-14T08:31:14.862Z,3.10
2022-10-14T08:33:42.154Z,3.30
2022-10-14T08:36:09.553Z,3.47
2022-10-14T08:38:36.868Z,3.22
2022-10-14T08:41:09.899Z,3.40
2022-10-14T08:43:38.566Z,2.83
2022-10-14T08:46:20.845Z,3.28
2022-10-14T08:48:48.732Z,3.13
2022-10-14T08:51:17.874Z,3.50
2022-10-14T08:53:46.949Z,3.08
2022-10-14T08:56:15.170Z,3.25
2022-10-14T08:58:44.729Z,3.70
2022-10-14T09:01:15.949Z,3.65
2022-10-14T09:06:17.890Z,3.05
2022-10-14T09:08:46.478Z,3.72
2022-10-14T09:11:19.398Z,3.53
2022-10-14T09:13:49.794Z,3.38
2022-10-14T09:16:19.939Z,3.67
2022-10-14T09:18:54.733Z,3.53
2022-10-14T09:21:48.022Z,3.47
2022-10-14T09:24:38.122Z,3.28
2022-10-14T09:27:07.681Z,2.97
2022-10-14T09:29:41.131Z,3.35
2022-10-14T09:32:10.110Z,3.20
2022-10-14T09:34:41.804Z,3.45
2022-10-14T09:37:27.643Z,3.30
2022-10-14T09:39:57.394Z,3.17
2022-10-14T09:42:32.209Z,3.17
2022-10-14T09:45:09.180Z,2.88
2022-10-14T09:47:38.430Z,2.92
2022-10-14T09:50:09.008Z,3.25
2022-10-14T09:52:38.165Z,3.30
2022-10-14T09:55:06.173Z,2.83
2022-10-14T09:57:33.544Z,2.80
2022-10-14T10:00:03.647Z,2.85
2022-10-14T10:02:38.382Z,2.92
2022-10-14T10:05:22.777Z,3.80
2022-10-14T10:08:01.714Z,3.22
2022-10-14T10:10:32.032Z,2.50
2022-10-14T10:12:59.674Z,2.83
2022-10-14T10:15:27.005Z,2.60
2022-10-14T10:17:54.351Z,2.95
2022-10-14T10:20:28.638Z,2.60
2022-10-14T10:22:57.307Z,3.03
2022-10-14T10:25:26.622Z,2.90
2022-10-14T10:27:54.974Z,2.92
2022-10-14T10:30:24.846Z,2.75
2022-10-14T10:32:52.062Z,2.70
2022-10-14T10:35:48.776Z,3.20
2022-10-14T10:38:22.028Z,3.22
2022-10-14T10:40:55.391Z,3.30
2022-10-14T10:43:25.768Z,3.42
2022-10-14T10:46:02.368Z,3.35
2022-10-14T10:48:51.241Z,3.13
2022-10-14T10:51:27.841Z,3.33
2022-10-14T10:54:13.621Z,3.50
2022-10-14T10:56:47.071Z,3.60
2022-10-14T10:59:35.473Z,3.35
2022-10-14T11:02:05.791Z,3.03
2022-10-14T11:04:34.269Z,3.17
2022-10-14T11:07:37.399Z,3.50
2022-10-14T11:10:43.439Z,3.47
2022-10-14T11:13:32.271Z,3.90
2022-10-14T11:16:03.480Z,3.75
2022-10-14T11:18:36.830Z,3.63
2022-10-14T11:21:13.136Z,3.35
2022-10-14T11:24:00.060Z,3.42
2022-10-14T11:26:47.627Z,3.50
2022-10-14T11:29:16.210Z,3.40
2022-10-14T11:31:51.044Z,3.65
2022-10-14T11:34:24.331Z,3.40
2022-10-14T11:37:05.381Z,3.40
2022-10-14T11:39:51.408Z,4.13
2022-10-14T11:42:33.695Z,4.05
2022-10-14T11:45:10.277Z,4.00
2022-10-14T11:47:39.342Z,3.85
2022-10-14T11:50:16.153Z,3.50
2022-10-14T11:52:49.536Z,3.78
2022-10-14T11:55:24.404Z,4.28
2022-10-14T11:57:58.370Z,3.83
2022-10-14T12:00:46.713Z,3.53
2022-10-14T12:03:14.060Z,4.20
2022-10-14T12:05:41.344Z,3.72
2022-10-14T12:08:14.968Z,3.90
2022-10-14T12:10:47.295Z,4.20
2022-10-14T12:13:16.589Z,4.60
2022-10-14T12:15:47.939Z,4.10
2022-10-14T12:18:15.257Z,4.20
2022-10-14T12:20:44.884Z,4.03
2022-10-14T12:23:15.379Z,4.30
2022-10-14T12:25:47.770Z,4.05
2022-10-14T12:28:15.967Z,4.45
2022-10-14T12:30:43.647Z,4.22
2022-10-14T12:33:22.389Z,4.65
2022-10-14T12:35:59.444Z,5.00
2022-10-14T12:38:28.096Z,4.70
2022-10-14T12:40:55.891Z,4.60
2022-10-14T12:43:23.687Z,4.35
2022-10-14T12:46:14.193Z,4.40
2022-10-14T12:48:50.397Z,5.53
2022-10-14T12:51:22.952Z,4.50
2022-10-14T12:53:59.514Z,4.53
2022-10-14T12:56:31.773Z,4.65
2022-10-14T12:59:01.370Z,5.55
2022-10-14T13:01:31.051Z,5.00
2022-10-14T13:04:07.362Z,4.85
2022-10-14T13:06:43.873Z,5.43
2022-10-14T13:09:17.087Z,4.80
2022-10-14T13:12:07.050Z,5.22
2022-10-14T13:14:54.216Z,5.57
2022-10-14T13:17:40.197Z,5.43
2022-10-14T13:20:27.411Z,5.47
2022-10-14T13:22:56.570Z,5.95
2022-10-14T13:25:28.258Z,5.00
2022-10-14T13:27:59.045Z,5.78
2022-10-14T13:30:30.322Z,4.85
2022-10-14T13:33:02.509Z,5.57
2022-10-14T13:35:34.670Z,5.10
2022-10-14T13:38:01.883Z,5.80
2022-10-14T13:40:30.192Z,5.53
2022-10-14T13:42:58.586Z,5.28
2022-10-14T13:45:43.648Z,6.07
2022-10-14T13:48:14.701Z,5.90
2022-10-14T13:50:42.803Z,5.72
2022-10-14T13:53:18.032Z,5.53
2022-10-14T13:55:50.361Z,5.65
2022-10-14T13:58:22.665Z,5.82
2022-10-14T14:00:57.954Z,5.85
2022-10-14T14:03:33.041Z,6.05
2022-10-14T14:06:00.393Z,5.55
2022-10-14T14:08:41.181Z,5.88
2022-10-14T14:11:18.527Z,5.55
2022-10-14T14:13:53.416Z,5.95
2022-10-14T14:16:23.723Z,6.18
2022-10-14T14:19:07.975Z,5.55
2022-10-14T14:21:36.414Z,6.00
2022-10-14T14:24:07.221Z,5.90
2022-10-14T14:26:35.506Z,5.78
2022-10-14T14:29:15.459Z,5.68
2022-10-14T14:34:30.946Z,6.07
2022-10-14T14:37:06.087Z,6.70
2022-10-14T14:39:55.642Z,6.10
2022-10-14T14:42:24.318Z,6.38
2022-10-14T14:44:52.030Z,7.10
2022-10-14T14:47:19.685Z,6.90
2022-10-14T14:49:47.325Z,6.93
2022-10-14T14:52:14.968Z,7.07
2022-10-14T14:54:46.957Z,7.55
2022-10-14T14:57:19.691Z,7.88
2022-10-14T15:00:00.927Z,7.60
2022-10-14T15:02:28.763Z,7.32
2022-10-14T15:05:06.989Z,7.60
2022-10-14T15:07:35.386Z,8.00
2022-10-14T15:10:04.993Z,7.47
2022-10-14T15:12:39.387Z,8.10
2022-10-14T15:15:07.464Z,8.38
2022-10-14T15:17:39.602Z,8.50
2022-10-14T15:22:44.836Z,8.38
2022-10-14T15:25:13.748Z,8.00
2022-10-14T15:27:46.776Z,8.15
2022-10-14T15:30:18.305Z,7.43
2022-10-14T15:32:45.581Z,8.23
2022-10-14T15:35:17.205Z,8.10
2022-10-14T15:37:44.723Z,7.72
2022-10-14T15:40:16.114Z,8.05
2022-10-14T15:42:43.332Z,9.32
2022-10-14T15:45:10.819Z,9.18
2022-10-14T15:47:38.675Z,9.85
2022-10-14T15:50:07.649Z,10.55
2022-10-14T15:52:35.015Z,11.55
2022-10-14T15:55:02.372Z,11.38
2022-10-14T15:57:29.643Z,11.07
2022-10-14T15:59:56.970Z,11.65
2022-10-14T16:02:26.211Z,13.10
2022-10-14T16:05:18.918Z,11.88
2022-10-14T16:07:41.501Z,10.93
2022-10-14T16:10:09.648Z,11.13
2022-10-14T16:12:36.888Z,10.73
2022-10-14T16:17:36.611Z,11.15
2022-10-14T16:20:03.891Z,11.63
2022-10-14T16:22:31.139Z,10.75
2022-10-14T16:24:58.383Z,10.43
2022-10-14T16:27:25.641Z,10.80
2022-10-14T16:29:53.024Z,10.75
2022-10-14T16:32:20.247Z,9.57
2022-10-14T16:34:47.511Z,10.70
2022-10-14T16:37:14.749Z,9.80
2022-10-14T16:39:41.963Z,9.35
2022-10-14T16:42:09.712Z,11.30
2022-10-14T16:44:37.056Z,11.07
2022-10-14T16:47:16.450Z,9.93
2022-10-14T16:49:44.769Z,10.88
2022-10-14T16:52:12.087Z,10.30
2022-10-14T16:54:39.342Z,11.25
2022-10-14T16:57:07.102Z,11.90
2022-10-14T16:59:34.463Z,11.68
2022-10-14T17:02:02.037Z,11.55
2022-10-14T17:04:29.359Z,11.65
2022-10-14T17:06:57.133Z,11.68
2022-10-14T17:11:52.617Z,11.63
2022-10-14T17:14:23.075Z,11.90
2022-10-14T17:16:52.568Z,11.70
2022-10-14T17:19:20.348Z,11.77
2022-10-14T17:21:48.829Z,12.20
2022-10-14T17:24:17.167Z,11.32
2022-10-14T17:26:45.304Z,11.27
2022-10-14T17:29:12.702Z,11.88
2022-10-14T17:31:40.027Z,12.63
2022-10-14T17:34:07.308Z,11.80
2022-10-14T17:36:34.692Z,12.27
2022-10-14T17:39:02.142Z,11.18
2022-10-14T17:41:30.698Z,11.32
2022-10-14T17:44:00.060Z,11.73
2022-10-14T17:46:29.309Z,11.85
2022-10-14T17:48:57.582Z,11.88
2022-10-14T17:51:25.801Z,12.20
2022-10-14T17:53:54.192Z,11.40
2022-10-14T17:56:21.803Z,11.38
2022-10-14T17:58:52.212Z,13.30
2022-10-14T18:01:31.696Z,12.50
2022-10-14T18:04:04.947Z,13.07
2022-10-14T18:06:33.393Z,12.63
2022-10-14T18:09:01.830Z,13.65
2022-10-14T18:11:49.754Z,13.57
2022-10-14T18:14:19.495Z,13.30
2022-10-14T18:16:47.817Z,13.75
2022-10-14T18:19:16.741Z,13.00
2022-10-14T18:21:44.638Z,14.32
2022-10-14T18:24:12.534Z,14.15
2022-10-14T18:26:41.062Z,14.80
2022-10-14T18:29:08.922Z,15.07
2022-10-14T18:31:36.253Z,15.18
2022-10-14T18:34:03.601Z,14.82
2022-10-14T18:36:33.219Z,14.65
2022-10-14T18:39:01.686Z,15.30
2022-10-14T18:41:29.981Z,15.63
2022-10-14T18:44:00.250Z,15.95
2022-10-14T18:46:28.840Z,15.73
2022-10-14T18:48:56.940Z,15.63
2022-10-14T18:51:25.968Z,16.38
2022-10-14T18:53:55.240Z,14.73
2022-10-14T18:56:24.216Z,15.23
2022-10-14T18:59:02.000Z,15.30
2022-10-14T19:01:30.156Z,15.20
2022-10-14T19:03:57.758Z,15.73
2022-10-14T19:06:25.177Z,15.77
2022-10-14T19:08:52.711Z,16.48
2022-10-14T19:11:21.633Z,16.35
2022-10-14T19:13:50.234Z,16.48
2022-10-14T19:16:19.020Z,17.30
2022-10-14T19:18:46.267Z,17.27
2022-10-14T19:21:14.957Z,16.90
2022-10-14T19:23:45.143Z,18.75
2022-10-14T19:28:53.411Z,16.80
2022-10-14T19:31:22.081Z,17.30
2022-10-14T19:33:49.624Z,16.95
2022-10-14T19:36:17.873Z,16.77
2022-10-14T19:38:46.554Z,17.27
2022-10-14T19:41:13.857Z,17.05
2022-10-14T19:43:41.207Z,17.65
2022-10-14T19:46:09.431Z,17.48
2022-10-14T19:48:37.085Z,16.92
2022-10-14T19:51:07.121Z,16.83
2022-10-14T19:53:34.807Z,16.80
2022-10-14T19:56:05.925Z,16.92
2022-10-14T20:01:07.871Z,16.77
2022-10-14T20:03:35.518Z,17.10
2022-10-14T20:06:03.292Z,16.75
2022-10-14T20:08:30.689Z,16.50
2022-10-14T20:10:57.925Z,16.30
2022-10-14T20:13:25.198Z,16.48
2022-10-14T20:15:55.779Z,16.40
2022-10-14T20:18:23.385Z,16.00
2022-10-14T20:20:50.679Z,15.88
2022-10-14T20:23:18.435Z,15.85
2022-10-14T20:25:45.882Z,16.75
2022-10-14T20:28:13.306Z,16.08
2022-10-14T20:30:41.538Z,16.27
2022-10-14T20:33:09.390Z,16.08
2022-10-14T20:35:37.158Z,16.27
2022-10-14T20:38:04.887Z,15.65
2022-10-14T20:40:34.252Z,15.82
2022-10-14T20:43:01.494Z,15.15
2022-10-14T20:45:28.841Z,15.85
2022-10-14T20:47:56.114Z,15.55
2022-10-14T20:50:23.546Z,15.43
2022-10-14T20:52:50.870Z,16.45
2022-10-14T20:55:18.175Z,15.20
2022-10-14T20:57:46.296Z,16.08
2022-10-14T21:00:13.866Z,15.25
2022-10-14T21:02:41.112Z,16.67
2022-10-14T21:05:08.544Z,15.73
2022-10-14T21:07:35.830Z,16.20
2022-10-14T21:10:03.095Z,15.70
2022-10-14T21:12:30.402Z,15.55
2022-10-14T21:14:57.658Z,16.50
2022-10-14T21:17:24.965Z,16.05
2022-10-14T21:19:52.274Z,16.40
2022-10-14T21:22:19.583Z,16.02
2022-10-14T21:24:46.867Z,16.30
2022-10-14T21:27:14.136Z,15.43
2022-10-14T21:29:41.377Z,15.73
2022-10-14T21:32:08.696Z,14.93
2022-10-14T21:34:35.972Z,15.38
2022-10-14T21:37:03.257Z,16.13
2022-10-14T21:39:30.553Z,14.70
2022-10-14T21:41:57.811Z,15.73
2022-10-14T21:44:25.073Z,14.75
2022-10-14T21:46:52.298Z,15.80
2022-10-14T21:49:19.606Z,15.75
2022-10-14T21:51:46.914Z,15.77
2022-10-14T21:54:14.672Z,15.00
2022-10-14T21:56:42.113Z,14.73
2022-10-14T21:59:10.209Z,15.30
2022-10-14T22:01:37.608Z,14.45
2022-10-14T22:04:06.034Z,14.48
2022-10-14T22:06:34.926Z,14.35
2022-10-14T22:09:03.326Z,14.82
2022-10-14T22:11:32.532Z,14.30
2022-10-14T22:14:00.636Z,14.45
2022-10-14T22:16:29.296Z,15.27
2022-10-14T22:18:58.524Z,14.65
2022-10-14T22:21:27.023Z,14.32
2022-10-14T22:23:54.548Z,14.00
2022-10-14T22:26:23.870Z,13.02
2022-10-14T22:28:51.574Z,13.57
2022-10-14T22:31:20.180Z,14.07
2022-10-14T22:33:47.599Z,14.88
2022-10-14T22:36:19.465Z,13.23
2022-10-14T22:38:50.409Z,13.73
2022-10-14T22:41:18.515Z,13.80
2022-10-14T22:43:49.922Z,13.05
2022-10-14T22:46:20.179Z,14.25
2022-10-14T22:48:47.956Z,13.60
2022-10-14T22:51:16.586Z,13.30
2022-10-14T22:53:44.642Z,12.82
2022-10-14T22:56:13.064Z,11.80
2022-10-14T22:58:40.338Z,12.27
2022-10-14T23:01:15.115Z,12.73
2022-10-14T23:03:42.911Z,12.10
2022-10-14T23:06:11.700Z,12.70
2022-10-14T23:08:39.628Z,13.02
2022-10-14T23:11:07.368Z,12.75
2022-10-14T23:13:34.804Z,12.73
2022-10-14T23:16:06.210Z,11.82
2022-10-14T23:18:35.075Z,12.40
2022-10-14T23:21:28.656Z,11.93
2022-10-14T23:23:59.859Z,12.60
2022-10-14T23:28:56.073Z,11.85
2022-10-14T23:31:24.236Z,12.02
2022-10-14T23:33:52.550Z,11.35
2022-10-14T23:36:20.914Z,11.57
2022-10-14T23:38:48.212Z,11.93
2022-10-14T23:41:15.461Z,11.93
2022-10-14T23:43:42.810Z,11.52
2022-10-14T23:46:10.173Z,11.65
2022-10-14T23:48:37.746Z,12.10
2022-10-14T23:51:05.296Z,12.27
2022-10-14T23:53:32.547Z,11.57
2022-10-14T23:56:00.328Z,12.02
2022-10-14T23:58:29.706Z,11.93
